sensor_id;sensor_type;location;lat;lon;timestamp;P1;durP1;ratioP1;P2;durP2;ratioP2
3901;SDS011;1966;49.908;9.156;2023-05-08T00:00:09;5.10;;;4.60;;
3901;SDS011;1966;49.908;9.156;2023-05-08T00:05:08;5.30;;;4.90;;
3901;SDS011;1966;49.908;9.156;2023-05-08T00:10:09;6.30;;;4.93;;
3901;SDS011;1966;49.908;9.156;2023-05-08T00:15:09;5.27;;;4.77;;
3901;SDS011;1966;49.908;9.156;2023-05-08T00:20:09;5.33;;;4.87;;
3901;SDS011;1966;49.908;9.156;2023-05-08T00:25:10;7.37;;;5.30;;
3901;SDS011;1966;49.908;9.156;2023-05-08T00:30:09;7.20;;;6.20;;
3901;SDS011;1966;49.908;9.156;2023-05-08T00:35:08;7.37;;;6.67;;
3901;SDS011;1966;49.908;9.156;2023-05-08T00:40:10;11.60;;;8.17;;
3901;SDS011;1966;49.908;9.156;2023-05-08T00:45:09;8.73;;;7.70;;
3901;SDS011;1966;49.908;9.156;2023-05-08T00:50:09;8.77;;;7.60;;
3901;SDS011;1966;49.908;9.156;2023-05-08T00:55:10;7.67;;;6.80;;
3901;SDS011;1966;49.908;9.156;2023-05-08T01:00:09;9.10;;;7.07;;
3901;SDS011;1966;49.908;9.156;2023-05-08T01:05:09;8.30;;;7.40;;
3901;SDS011;1966;49.908;9.156;2023-05-08T01:10:10;7.60;;;6.90;;
3901;SDS011;1966;49.908;9.156;2023-05-08T01:15:10;7.77;;;7.07;;
3901;SDS011;1966;49.908;9.156;2023-05-08T01:20:17;8.10;;;6.30;;
3901;SDS011;1966;49.908;9.156;2023-05-08T01:25:28;16.10;;;7.30;;
3901;SDS011;1966;49.908;9.156;2023-05-08T01:30:36;7.63;;;6.83;;
3901;SDS011;1966;49.908;9.156;2023-05-08T01:35:41;7.27;;;6.57;;
3901;SDS011;1966;49.908;9.156;2023-05-08T01:40:44;9.63;;;7.10;;
3901;SDS011;1966;49.908;9.156;2023-05-08T01:45:47;7.87;;;6.40;;
3901;SDS011;1966;49.908;9.156;2023-05-08T01:50:55;7.60;;;6.90;;
3901;SDS011;1966;49.908;9.156;2023-05-08T01:55:57;8.70;;;7.90;;
3901;SDS011;1966;49.908;9.156;2023-05-08T02:00:57;8.07;;;7.23;;
3901;SDS011;1966;49.908;9.156;2023-05-08T02:05:59;8.07;;;7.27;;
3901;SDS011;1966;49.908;9.156;2023-05-08T02:10:59;7.90;;;7.10;;
3901;SDS011;1966;49.908;9.156;2023-05-08T02:16:00;8.50;;;7.70;;
3901;SDS011;1966;49.908;9.156;2023-05-08T02:21:01;7.83;;;7.03;;
3901;SDS011;1966;49.908;9.156;2023-05-08T02:26:02;7.50;;;6.80;;
3901;SDS011;1966;49.908;9.156;2023-05-08T02:31:02;9.77;;;8.07;;
3901;SDS011;1966;49.908;9.156;2023-05-08T02:36:03;8.57;;;7.77;;
3901;SDS011;1966;49.908;9.156;2023-05-08T02:41:02;8.73;;;7.87;;
3901;SDS011;1966;49.908;9.156;2023-05-08T02:46:07;9.30;;;7.70;;
3901;SDS011;1966;49.908;9.156;2023-05-08T02:51:17;9.40;;;8.20;;
3901;SDS011;1966;49.908;9.156;2023-05-08T02:56:20;9.40;;;8.50;;
3901;SDS011;1966;49.908;9.156;2023-05-08T03:01:22;10.63;;;8.80;;
3901;SDS011;1966;49.908;9.156;2023-05-08T03:06:25;12.03;;;8.50;;
3901;SDS011;1966;49.908;9.156;2023-05-08T03:11:25;9.93;;;8.77;;
3901;SDS011;1966;49.908;9.156;2023-05-08T03:16:30;10.13;;;8.70;;
3901;SDS011;1966;49.908;9.156;2023-05-08T03:21:34;9.80;;;8.80;;
3901;SDS011;1966;49.908;9.156;2023-05-08T03:26:35;9.70;;;8.80;;
3901;SDS011;1966;49.908;9.156;2023-05-08T03:31:34;11.20;;;9.20;;
3901;SDS011;1966;49.908;9.156;2023-05-08T03:36:35;12.17;;;9.60;;
3901;SDS011;1966;49.908;9.156;2023-05-08T03:41:35;10.07;;;9.07;;
3901;SDS011;1966;49.908;9.156;2023-05-08T03:46:34;10.57;;;9.53;;
3901;SDS011;1966;49.908;9.156;2023-05-08T03:51:36;10.53;;;8.80;;
3901;SDS011;1966;49.908;9.156;2023-05-08T03:56:36;10.30;;;9.30;;
3901;SDS011;1966;49.908;9.156;2023-05-08T04:01:36;9.93;;;8.90;;
3901;SDS011;1966;49.908;9.156;2023-05-08T04:06:39;10.23;;;9.13;;
3901;SDS011;1966;49.908;9.156;2023-05-08T04:11:41;10.77;;;9.20;;
3901;SDS011;1966;49.908;9.156;2023-05-08T04:16:44;9.30;;;8.30;;
3901;SDS011;1966;49.908;9.156;2023-05-08T04:21:46;11.63;;;8.67;;
3901;SDS011;1966;49.908;9.156;2023-05-08T04:26:46;11.73;;;9.40;;
3901;SDS011;1966;49.908;9.156;2023-05-08T04:31:45;9.77;;;8.77;;
3901;SDS011;1966;49.908;9.156;2023-05-08T04:36:46;10.60;;;9.50;;
3901;SDS011;1966;49.908;9.156;2023-05-08T04:41:46;9.67;;;8.67;;
3901;SDS011;1966;49.908;9.156;2023-05-08T04:46:48;9.57;;;8.67;;
3901;SDS011;1966;49.908;9.156;2023-05-08T04:51:49;11.13;;;8.40;;
3901;SDS011;1966;49.908;9.156;2023-05-08T04:56:48;10.20;;;9.20;;
3901;SDS011;1966;49.908;9.156;2023-05-08T05:01:47;9.57;;;8.67;;
3901;SDS011;1966;49.908;9.156;2023-05-08T05:06:48;10.10;;;9.10;;
3901;SDS011;1966;49.908;9.156;2023-05-08T05:11:47;10.83;;;9.73;;
3901;SDS011;1966;49.908;9.156;2023-05-08T05:16:46;11.10;;;8.90;;
3901;SDS011;1966;49.908;9.156;2023-05-08T05:21:46;8.97;;;8.07;;
3901;SDS011;1966;49.908;9.156;2023-05-08T05:26:46;11.73;;;9.83;;
3901;SDS011;1966;49.908;9.156;2023-05-08T05:31:45;8.90;;;8.10;;
3901;SDS011;1966;49.908;9.156;2023-05-08T05:36:45;9.33;;;8.30;;
3901;SDS011;1966;49.908;9.156;2023-05-08T05:41:45;12.30;;;9.20;;
3901;SDS011;1966;49.908;9.156;2023-05-08T05:46:45;9.60;;;8.60;;
3901;SDS011;1966;49.908;9.156;2023-05-08T05:51:44;10.33;;;8.57;;
3901;SDS011;1966;49.908;9.156;2023-05-08T05:56:44;10.67;;;9.03;;
3901;SDS011;1966;49.908;9.156;2023-05-08T06:01:43;11.50;;;8.60;;
3901;SDS011;1966;49.908;9.156;2023-05-08T06:06:43;10.53;;;9.50;;
3901;SDS011;1966;49.908;9.156;2023-05-08T06:11:43;9.47;;;8.57;;
3901;SDS011;1966;49.908;9.156;2023-05-08T06:16:42;9.97;;;8.97;;
3901;SDS011;1966;49.908;9.156;2023-05-08T06:21:42;8.83;;;7.93;;
3901;SDS011;1966;49.908;9.156;2023-05-08T06:26:42;10.13;;;9.13;;
3901;SDS011;1966;49.908;9.156;2023-05-08T06:31:41;9.77;;;8.77;;
3901;SDS011;1966;49.908;9.156;2023-05-08T06:36:41;9.50;;;8.23;;
3901;SDS011;1966;49.908;9.156;2023-05-08T06:41:40;9.97;;;8.97;;
3901;SDS011;1966;49.908;9.156;2023-05-08T06:46:40;9.77;;;8.87;;
3901;SDS011;1966;49.908;9.156;2023-05-08T06:51:40;10.30;;;8.90;;
3901;SDS011;1966;49.908;9.156;2023-05-08T06:56:39;8.90;;;8.00;;
3901;SDS011;1966;49.908;9.156;2023-05-08T07:01:38;10.43;;;9.33;;
3901;SDS011;1966;49.908;9.156;2023-05-08T07:06:40;11.33;;;9.07;;
3901;SDS011;1966;49.908;9.156;2023-05-08T07:11:39;9.70;;;8.63;;
3901;SDS011;1966;49.908;9.156;2023-05-08T07:16:38;9.60;;;8.60;;
3901;SDS011;1966;49.908;9.156;2023-05-08T07:21:37;9.83;;;8.87;;
3901;SDS011;1966;49.908;9.156;2023-05-08T07:26:38;9.90;;;8.90;;
3901;SDS011;1966;49.908;9.156;2023-05-08T07:31:38;17.10;;;9.47;;
3901;SDS011;1966;49.908;9.156;2023-05-08T07:36:38;9.20;;;8.30;;
3901;SDS011;1966;49.908;9.156;2023-05-08T07:41:39;9.47;;;8.47;;
3901;SDS011;1966;49.908;9.156;2023-05-08T07:46:38;9.73;;;8.40;;
3901;SDS011;1966;49.908;9.156;2023-05-08T07:51:38;10.20;;;9.10;;
3901;SDS011;1966;49.908;9.156;2023-05-08T07:56:39;9.80;;;8.90;;
3901;SDS011;1966;49.908;9.156;2023-05-08T08:01:38;14.93;;;9.93;;
3901;SDS011;1966;49.908;9.156;2023-05-08T08:06:40;12.20;;;10.80;;
3901;SDS011;1966;49.908;9.156;2023-05-08T08:11:40;11.57;;;9.93;;
3901;SDS011;1966;49.908;9.156;2023-05-08T08:16:40;10.80;;;9.70;;
3901;SDS011;1966;49.908;9.156;2023-05-08T08:21:40;12.30;;;9.90;;
3901;SDS011;1966;49.908;9.156;2023-05-08T08:26:41;17.40;;;10.07;;
3901;SDS011;1966;49.908;9.156;2023-05-08T08:31:40;10.90;;;9.73;;
3901;SDS011;1966;49.908;9.156;2023-05-08T08:36:39;11.53;;;10.23;;
3901;SDS011;1966;49.908;9.156;2023-05-08T08:41:39;11.37;;;9.87;;
3901;SDS011;1966;49.908;9.156;2023-05-08T08:46:43;12.90;;;9.87;;
3901;SDS011;1966;49.908;9.156;2023-05-08T08:51:45;11.37;;;10.17;;
3901;SDS011;1966;49.908;9.156;2023-05-08T08:56:47;12.43;;;9.80;;
3901;SDS011;1966;49.908;9.156;2023-05-08T09:01:49;9.67;;;8.77;;
3901;SDS011;1966;49.908;9.156;2023-05-08T09:06:50;9.17;;;8.27;;
3901;SDS011;1966;49.908;9.156;2023-05-08T09:11:50;8.83;;;7.73;;
3901;SDS011;1966;49.908;9.156;2023-05-08T09:16:51;8.80;;;8.00;;
3901;SDS011;1966;49.908;9.156;2023-05-08T09:21:51;8.70;;;7.80;;
3901;SDS011;1966;49.908;9.156;2023-05-08T09:26:50;8.63;;;7.87;;
3901;SDS011;1966;49.908;9.156;2023-05-08T09:31:51;8.00;;;7.20;;
3901;SDS011;1966;49.908;9.156;2023-05-08T09:36:50;9.23;;;7.53;;
3901;SDS011;1966;49.908;9.156;2023-05-08T09:41:55;8.53;;;7.60;;
3901;SDS011;1966;49.908;9.156;2023-05-08T09:47:09;9.27;;;8.33;;
3901;SDS011;1966;49.908;9.156;2023-05-08T09:52:09;9.70;;;8.50;;
3901;SDS011;1966;49.908;9.156;2023-05-08T09:57:13;8.70;;;7.90;;
3901;SDS011;1966;49.908;9.156;2023-05-08T10:02:14;8.73;;;7.80;;
3901;SDS011;1966;49.908;9.156;2023-05-08T10:07:14;8.93;;;8.03;;
3901;SDS011;1966;49.908;9.156;2023-05-08T10:12:13;8.83;;;8.03;;
3901;SDS011;1966;49.908;9.156;2023-05-08T10:17:14;9.50;;;8.30;;
3901;SDS011;1966;49.908;9.156;2023-05-08T10:22:15;8.87;;;7.97;;
3901;SDS011;1966;49.908;9.156;2023-05-08T10:27:16;9.43;;;8.50;;
3901;SDS011;1966;49.908;9.156;2023-05-08T10:32:19;9.20;;;8.30;;
3901;SDS011;1966;49.908;9.156;2023-05-08T10:37:18;10.60;;;9.50;;
3901;SDS011;1966;49.908;9.156;2023-05-08T10:42:17;8.93;;;8.03;;
3901;SDS011;1966;49.908;9.156;2023-05-08T10:47:20;9.20;;;8.30;;
3901;SDS011;1966;49.908;9.156;2023-05-08T10:52:22;9.87;;;8.87;;
3901;SDS011;1966;49.908;9.156;2023-05-08T10:57:23;8.77;;;7.87;;
3901;SDS011;1966;49.908;9.156;2023-05-08T11:02:26;9.43;;;8.53;;
3901;SDS011;1966;49.908;9.156;2023-05-08T11:07:29;10.50;;;9.00;;
3901;SDS011;1966;49.908;9.156;2023-05-08T11:12:28;8.83;;;8.03;;
3901;SDS011;1966;49.908;9.156;2023-05-08T11:17:32;10.17;;;7.80;;
3901;SDS011;1966;49.908;9.156;2023-05-08T11:22:32;8.07;;;7.27;;
3901;SDS011;1966;49.908;9.156;2023-05-08T11:27:35;8.70;;;7.90;;
3901;SDS011;1966;49.908;9.156;2023-05-08T11:43:19;8.90;;;8.10;;
3901;SDS011;1966;49.908;9.156;2023-05-08T11:48:22;8.80;;;8.00;;
3901;SDS011;1966;49.908;9.156;2023-05-08T11:53:21;8.83;;;7.90;;
3901;SDS011;1966;49.908;9.156;2023-05-08T11:58:22;8.73;;;7.80;;
3901;SDS011;1966;49.908;9.156;2023-05-08T12:03:21;7.90;;;6.87;;
3901;SDS011;1966;49.908;9.156;2023-05-08T12:08:22;8.13;;;6.80;;
3901;SDS011;1966;49.908;9.156;2023-05-08T12:13:23;7.23;;;6.53;;
3901;SDS011;1966;49.908;9.156;2023-05-08T12:18:23;7.80;;;7.20;;
3901;SDS011;1966;49.908;9.156;2023-05-08T12:23:23;10.40;;;7.20;;
3901;SDS011;1966;49.908;9.156;2023-05-08T12:28:24;8.30;;;7.60;;
3901;SDS011;1966;49.908;9.156;2023-05-08T12:33:23;9.20;;;8.40;;
3901;SDS011;1966;49.908;9.156;2023-05-08T12:38:24;8.63;;;7.83;;
3901;SDS011;1966;49.908;9.156;2023-05-08T12:43:31;8.67;;;7.87;;
3901;SDS011;1966;49.908;9.156;2023-05-08T12:48:30;11.47;;;8.33;;
3901;SDS011;1966;49.908;9.156;2023-05-08T12:53:30;10.67;;;9.67;;
3901;SDS011;1966;49.908;9.156;2023-05-08T12:58:32;10.73;;;9.73;;
3901;SDS011;1966;49.908;9.156;2023-05-08T13:03:31;10.57;;;9.57;;
3901;SDS011;1966;49.908;9.156;2023-05-08T13:08:31;9.90;;;8.90;;
3901;SDS011;1966;49.908;9.156;2023-05-08T13:13:32;12.70;;;10.17;;
3901;SDS011;1966;49.908;9.156;2023-05-08T13:18:32;11.13;;;10.03;;
3901;SDS011;1966;49.908;9.156;2023-05-08T13:23:33;11.63;;;10.43;;
3901;SDS011;1966;49.908;9.156;2023-05-08T13:28:33;11.80;;;10.60;;
3901;SDS011;1966;49.908;9.156;2023-05-08T13:33:33;11.47;;;10.37;;
3901;SDS011;1966;49.908;9.156;2023-05-08T13:38:35;12.57;;;10.77;;
3901;SDS011;1966;49.908;9.156;2023-05-08T13:43:35;11.90;;;10.37;;
3901;SDS011;1966;49.908;9.156;2023-05-08T13:48:34;13.80;;;12.03;;
3901;SDS011;1966;49.908;9.156;2023-05-08T13:53:34;13.13;;;11.60;;
3901;SDS011;1966;49.908;9.156;2023-05-08T13:58:33;14.13;;;11.77;;
3901;SDS011;1966;49.908;9.156;2023-05-08T14:03:33;14.20;;;12.40;;
3901;SDS011;1966;49.908;9.156;2023-05-08T14:08:33;15.03;;;12.57;;
3901;SDS011;1966;49.908;9.156;2023-05-08T14:13:32;18.27;;;13.30;;
3901;SDS011;1966;49.908;9.156;2023-05-08T14:18:31;13.93;;;12.07;;
3901;SDS011;1966;49.908;9.156;2023-05-08T14:23:32;13.20;;;11.80;;
3901;SDS011;1966;49.908;9.156;2023-05-08T14:28:32;11.90;;;10.50;;
3901;SDS011;1966;49.908;9.156;2023-05-08T14:33:31;20.23;;;11.13;;
3901;SDS011;1966;49.908;9.156;2023-05-08T14:38:32;11.43;;;10.33;;
3901;SDS011;1966;49.908;9.156;2023-05-08T14:43:31;14.17;;;12.67;;
3901;SDS011;1966;49.908;9.156;2023-05-08T14:48:30;12.00;;;10.80;;
3901;SDS011;1966;49.908;9.156;2023-05-08T14:53:31;14.23;;;10.90;;
3901;SDS011;1966;49.908;9.156;2023-05-08T14:58:30;12.87;;;11.57;;
3901;SDS011;1966;49.908;9.156;2023-05-08T15:03:29;11.33;;;10.17;;
3901;SDS011;1966;49.908;9.156;2023-05-08T15:08:29;13.20;;;11.77;;
3901;SDS011;1966;49.908;9.156;2023-05-08T15:13:29;13.70;;;12.30;;
3901;SDS011;1966;49.908;9.156;2023-05-08T15:18:28;12.63;;;11.40;;
3901;SDS011;1966;49.908;9.156;2023-05-08T15:23:28;13.53;;;11.83;;
3901;SDS011;1966;49.908;9.156;2023-05-08T15:28:27;11.00;;;9.90;;
3901;SDS011;1966;49.908;9.156;2023-05-08T15:33:28;11.57;;;9.57;;
3901;SDS011;1966;49.908;9.156;2023-05-08T15:38:27;10.83;;;9.73;;
3901;SDS011;1966;49.908;9.156;2023-05-08T15:43:26;11.23;;;9.70;;
3901;SDS011;1966;49.908;9.156;2023-05-08T15:48:26;11.30;;;10.10;;
3901;SDS011;1966;49.908;9.156;2023-05-08T15:53:26;13.47;;;10.00;;
3901;SDS011;1966;49.908;9.156;2023-05-08T15:58:25;10.73;;;9.10;;
3901;SDS011;1966;49.908;9.156;2023-05-08T16:03:25;9.70;;;8.70;;
3901;SDS011;1966;49.908;9.156;2023-05-08T16:08:24;11.53;;;10.33;;
3901;SDS011;1966;49.908;9.156;2023-05-08T16:13:25;10.83;;;9.73;;
3901;SDS011;1966;49.908;9.156;2023-05-08T16:18:24;10.83;;;9.43;;
3901;SDS011;1966;49.908;9.156;2023-05-08T16:23:23;9.70;;;8.80;;
3901;SDS011;1966;49.908;9.156;2023-05-08T16:28:24;9.73;;;8.77;;
3901;SDS011;1966;49.908;9.156;2023-05-08T16:33:23;11.60;;;9.70;;
3901;SDS011;1966;49.908;9.156;2023-05-08T16:38:23;11.67;;;9.50;;
3901;SDS011;1966;49.908;9.156;2023-05-08T16:43:22;10.60;;;9.50;;
3901;SDS011;1966;49.908;9.156;2023-05-08T16:48:23;11.10;;;9.97;;
3901;SDS011;1966;49.908;9.156;2023-05-08T16:53:22;10.80;;;9.70;;
3901;SDS011;1966;49.908;9.156;2023-05-08T16:58:24;11.83;;;10.63;;
3901;SDS011;1966;49.908;9.156;2023-05-08T17:03:25;12.33;;;11.03;;
3901;SDS011;1966;49.908;9.156;2023-05-08T17:08:24;18.27;;;11.70;;
3901;SDS011;1966;49.908;9.156;2023-05-08T17:13:23;11.50;;;10.00;;
3901;SDS011;1966;49.908;9.156;2023-05-08T17:18:23;11.53;;;10.33;;
3901;SDS011;1966;49.908;9.156;2023-05-08T17:23:23;10.60;;;9.50;;
3901;SDS011;1966;49.908;9.156;2023-05-08T17:28:23;13.00;;;10.63;;
3901;SDS011;1966;49.908;9.156;2023-05-08T17:33:22;11.10;;;9.90;;
3901;SDS011;1966;49.908;9.156;2023-05-08T17:38:21;13.40;;;10.13;;
3901;SDS011;1966;49.908;9.156;2023-05-08T17:43:22;12.03;;;10.83;;
3901;SDS011;1966;49.908;9.156;2023-05-08T17:48:21;11.10;;;10.00;;
3901;SDS011;1966;49.908;9.156;2023-05-08T17:53:20;12.20;;;10.20;;
3901;SDS011;1966;49.908;9.156;2023-05-08T17:58:19;11.77;;;10.53;;
3901;SDS011;1966;49.908;9.156;2023-05-08T18:03:20;12.97;;;10.50;;
3901;SDS011;1966;49.908;9.156;2023-05-08T18:08:19;12.40;;;11.10;;
3901;SDS011;1966;49.908;9.156;2023-05-08T18:13:19;11.37;;;10.10;;
3901;SDS011;1966;49.908;9.156;2023-05-08T18:18:18;11.40;;;10.20;;
3901;SDS011;1966;49.908;9.156;2023-05-08T18:23:19;11.20;;;9.77;;
3901;SDS011;1966;49.908;9.156;2023-05-08T18:28:19;12.07;;;10.97;;
3901;SDS011;1966;49.908;9.156;2023-05-08T18:33:18;10.43;;;9.50;;
3901;SDS011;1966;49.908;9.156;2023-05-08T18:38:19;11.30;;;10.20;;
3901;SDS011;1966;49.908;9.156;2023-05-08T18:43:18;11.43;;;10.23;;
3901;SDS011;1966;49.908;9.156;2023-05-08T18:48:17;12.00;;;10.70;;
3901;SDS011;1966;49.908;9.156;2023-05-08T18:53:16;12.67;;;11.20;;
3901;SDS011;1966;49.908;9.156;2023-05-08T18:58:17;13.83;;;10.83;;
3901;SDS011;1966;49.908;9.156;2023-05-08T19:03:16;12.13;;;10.83;;
3901;SDS011;1966;49.908;9.156;2023-05-08T19:08:16;17.37;;;12.67;;
3901;SDS011;1966;49.908;9.156;2023-05-08T19:13:16;20.50;;;13.40;;
3901;SDS011;1966;49.908;9.156;2023-05-08T19:18:15;16.27;;;13.60;;
3901;SDS011;1966;49.908;9.156;2023-05-08T19:23:15;17.47;;;15.00;;
3901;SDS011;1966;49.908;9.156;2023-05-08T19:28:14;18.80;;;15.37;;
3901;SDS011;1966;49.908;9.156;2023-05-08T19:33:15;15.53;;;13.27;;
3901;SDS011;1966;49.908;9.156;2023-05-08T19:38:17;19.90;;;12.97;;
3901;SDS011;1966;49.908;9.156;2023-05-08T19:43:16;14.40;;;12.90;;
3901;SDS011;1966;49.908;9.156;2023-05-08T19:48:17;13.73;;;11.77;;
3901;SDS011;1966;49.908;9.156;2023-05-08T19:53:17;13.07;;;11.70;;
3901;SDS011;1966;49.908;9.156;2023-05-08T19:58:16;12.97;;;11.63;;
3901;SDS011;1966;49.908;9.156;2023-05-08T20:03:17;12.60;;;11.30;;
3901;SDS011;1966;49.908;9.156;2023-05-08T20:08:16;11.97;;;10.77;;
3901;SDS011;1966;49.908;9.156;2023-05-08T20:13:15;15.43;;;13.50;;
3901;SDS011;1966;49.908;9.156;2023-05-08T20:18:16;18.37;;;14.30;;
3901;SDS011;1966;49.908;9.156;2023-05-08T20:23:15;17.40;;;14.60;;
3901;SDS011;1966;49.908;9.156;2023-05-08T20:28:15;17.33;;;14.40;;
3901;SDS011;1966;49.908;9.156;2023-05-08T20:33:20;17.10;;;12.97;;
3901;SDS011;1966;49.908;9.156;2023-05-08T20:38:19;14.70;;;13.20;;
3901;SDS011;1966;49.908;9.156;2023-05-08T20:43:19;14.73;;;12.87;;
3901;SDS011;1966;49.908;9.156;2023-05-08T20:48:18;14.33;;;12.77;;
3901;SDS011;1966;49.908;9.156;2023-05-08T20:53:18;14.77;;;13.20;;
3901;SDS011;1966;49.908;9.156;2023-05-08T20:58:18;14.33;;;12.70;;
3901;SDS011;1966;49.908;9.156;2023-05-08T21:03:17;13.70;;;12.40;;
3901;SDS011;1966;49.908;9.156;2023-05-08T21:08:16;13.73;;;12.23;;
3901;SDS011;1966;49.908;9.156;2023-05-08T21:13:20;15.37;;;12.33;;
3901;SDS011;1966;49.908;9.156;2023-05-08T21:18:19;12.90;;;11.60;;
3901;SDS011;1966;49.908;9.156;2023-05-08T21:23:18;14.83;;;13.37;;
3901;SDS011;1966;49.908;9.156;2023-05-08T21:28:19;14.30;;;12.70;;
3901;SDS011;1966;49.908;9.156;2023-05-08T21:33:18;14.87;;;13.00;;
3901;SDS011;1966;49.908;9.156;2023-05-08T21:38:18;16.83;;;13.50;;
3901;SDS011;1966;49.908;9.156;2023-05-08T21:43:17;14.77;;;12.60;;
3901;SDS011;1966;49.908;9.156;2023-05-08T21:48:17;14.37;;;12.87;;
3901;SDS011;1966;49.908;9.156;2023-05-08T21:53:17;14.20;;;12.67;;
3901;SDS011;1966;49.908;9.156;2023-05-08T21:58:16;14.40;;;12.90;;
3901;SDS011;1966;49.908;9.156;2023-05-08T22:03:15;14.00;;;12.33;;
3901;SDS011;1966;49.908;9.156;2023-05-08T22:08:16;16.90;;;13.00;;
3901;SDS011;1966;49.908;9.156;2023-05-08T22:13:15;15.73;;;13.40;;
3901;SDS011;1966;49.908;9.156;2023-05-08T22:18:15;14.83;;;12.70;;
3901;SDS011;1966;49.908;9.156;2023-05-08T22:23:14;13.80;;;12.30;;
3901;SDS011;1966;49.908;9.156;2023-05-08T22:28:14;14.67;;;12.03;;
3901;SDS011;1966;49.908;9.156;2023-05-08T22:33:14;13.80;;;12.27;;
3901;SDS011;1966;49.908;9.156;2023-05-08T22:38:13;14.47;;;12.97;;
3901;SDS011;1966;49.908;9.156;2023-05-08T22:43:12;15.87;;;13.70;;
3901;SDS011;1966;49.908;9.156;2023-05-08T22:48:13;14.77;;;13.20;;
3901;SDS011;1966;49.908;9.156;2023-05-08T22:53:12;13.20;;;11.80;;
3901;SDS011;1966;49.908;9.156;2023-05-08T22:58:11;14.60;;;12.27;;
3901;SDS011;1966;49.908;9.156;2023-05-08T23:03:11;16.43;;;13.20;;
3901;SDS011;1966;49.908;9.156;2023-05-08T23:08:12;16.80;;;14.83;;
3901;SDS011;1966;49.908;9.156;2023-05-08T23:13:11;24.90;;;17.47;;
3901;SDS011;1966;49.908;9.156;2023-05-08T23:18:10;22.33;;;17.43;;
3901;SDS011;1966;49.908;9.156;2023-05-08T23:23:09;19.57;;;16.73;;
3901;SDS011;1966;49.908;9.156;2023-05-08T23:28:10;19.70;;;17.60;;
3901;SDS011;1966;49.908;9.156;2023-05-08T23:33:09;23.07;;;17.70;;
3901;SDS011;1966;49.908;9.156;2023-05-08T23:38:08;16.10;;;13.83;;
3901;SDS011;1966;49.908;9.156;2023-05-08T23:43:08;16.60;;;14.50;;
3901;SDS011;1966;49.908;9.156;2023-05-08T23:48:09;18.00;;;15.47;;
3901;SDS011;1966;49.908;9.156;2023-05-08T23:53:08;17.50;;;15.70;;
3901;SDS011;1966;49.908;9.156;2023-05-08T23:58:07;21.00;;;16.60;;
